sensor_id;sensor_type;location;lat;lon;timestamp;P1;durP1;ratioP1;P2;durP2;ratioP2
19482;SDS011;9882;51.166;6.992;2023-06-26T00:02:05;11.90;;;4.35;;
19482;SDS011;9882;51.166;6.992;2023-06-26T00:04:33;10.18;;;4.47;;
19482;SDS011;9882;51.166;6.992;2023-06-26T00:07:03;10.05;;;4.60;;
19482;SDS011;9882;51.166;6.992;2023-06-26T00:09:33;10.90;;;4.72;;
19482;SDS011;9882;51.166;6.992;2023-06-26T00:12:01;11.90;;;4.60;;
19482;SDS011;9882;51.166;6.992;2023-06-26T00:14:30;12.88;;;4.90;;
19482;SDS011;9882;51.166;6.992;2023-06-26T00:16:59;12.13;;;4.50;;
19482;SDS011;9882;51.166;6.992;2023-06-26T00:19:27;12.18;;;4.57;;
19482;SDS011;9882;51.166;6.992;2023-06-26T00:21:56;11.02;;;5.03;;
19482;SDS011;9882;51.166;6.992;2023-06-26T00:24:26;8.38;;;4.07;;
19482;SDS011;9882;51.166;6.992;2023-06-26T00:26:54;9.85;;;4.70;;
19482;SDS011;9882;51.166;6.992;2023-06-26T00:29:22;12.45;;;4.50;;
19482;SDS011;9882;51.166;6.992;2023-06-26T00:31:51;9.70;;;4.55;;
19482;SDS011;9882;51.166;6.992;2023-06-26T00:34:19;9.82;;;4.10;;
19482;SDS011;9882;51.166;6.992;2023-06-26T00:36:48;11.75;;;4.47;;
19482;SDS011;9882;51.166;6.992;2023-06-26T00:39:16;9.65;;;4.40;;
19482;SDS011;9882;51.166;6.992;2023-06-26T00:41:46;12.95;;;4.70;;
19482;SDS011;9882;51.166;6.992;2023-06-26T00:44:15;10.68;;;4.50;;
19482;SDS011;9882;51.166;6.992;2023-06-26T00:46:44;13.52;;;4.95;;
19482;SDS011;9882;51.166;6.992;2023-06-26T00:49:13;13.45;;;4.95;;
19482;SDS011;9882;51.166;6.992;2023-06-26T00:51:42;10.75;;;4.68;;
19482;SDS011;9882;51.166;6.992;2023-06-26T00:54:11;11.48;;;4.30;;
19482;SDS011;9882;51.166;6.992;2023-06-26T00:56:48;9.02;;;4.07;;
19482;SDS011;9882;51.166;6.992;2023-06-26T00:59:16;11.98;;;4.85;;
19482;SDS011;9882;51.166;6.992;2023-06-26T01:01:45;10.20;;;4.57;;
19482;SDS011;9882;51.166;6.992;2023-06-26T01:04:15;11.63;;;4.90;;
19482;SDS011;9882;51.166;6.992;2023-06-26T01:06:45;11.10;;;4.65;;
19482;SDS011;9882;51.166;6.992;2023-06-26T01:09:16;10.18;;;4.53;;
19482;SDS011;9882;51.166;6.992;2023-06-26T01:11:47;9.50;;;4.25;;
19482;SDS011;9882;51.166;6.992;2023-06-26T01:14:16;15.20;;;4.60;;
19482;SDS011;9882;51.166;6.992;2023-06-26T01:16:45;11.13;;;4.72;;
19482;SDS011;9882;51.166;6.992;2023-06-26T01:19:18;12.75;;;4.68;;
19482;SDS011;9882;51.166;6.992;2023-06-26T01:21:54;9.15;;;4.47;;
19482;SDS011;9882;51.166;6.992;2023-06-26T01:24:27;10.23;;;4.70;;
19482;SDS011;9882;51.166;6.992;2023-06-26T01:27:05;8.48;;;4.57;;
19482;SDS011;9882;51.166;6.992;2023-06-26T01:29:35;10.48;;;4.57;;
19482;SDS011;9882;51.166;6.992;2023-06-26T01:32:07;11.57;;;4.50;;
19482;SDS011;9882;51.166;6.992;2023-06-26T01:34:36;10.43;;;4.72;;
19482;SDS011;9882;51.166;6.992;2023-06-26T01:37:05;10.57;;;4.72;;
19482;SDS011;9882;51.166;6.992;2023-06-26T01:39:33;13.80;;;4.70;;
19482;SDS011;9882;51.166;6.992;2023-06-26T01:42:02;11.30;;;4.57;;
19482;SDS011;9882;51.166;6.992;2023-06-26T01:44:34;8.70;;;4.50;;
19482;SDS011;9882;51.166;6.992;2023-06-26T01:47:08;9.55;;;4.45;;
19482;SDS011;9882;51.166;6.992;2023-06-26T01:49:46;11.20;;;4.22;;
19482;SDS011;9882;51.166;6.992;2023-06-26T01:52:19;9.95;;;4.20;;
19482;SDS011;9882;51.166;6.992;2023-06-26T01:54:53;11.93;;;4.40;;
19482;SDS011;9882;51.166;6.992;2023-06-26T01:57:26;12.30;;;4.28;;
19482;SDS011;9882;51.166;6.992;2023-06-26T01:59:57;12.60;;;4.50;;
19482;SDS011;9882;51.166;6.992;2023-06-26T02:02:27;10.38;;;4.60;;
19482;SDS011;9882;51.166;6.992;2023-06-26T02:04:57;10.23;;;4.38;;
19482;SDS011;9882;51.166;6.992;2023-06-26T02:07:26;10.18;;;4.55;;
19482;SDS011;9882;51.166;6.992;2023-06-26T02:09:54;9.02;;;4.18;;
19482;SDS011;9882;51.166;6.992;2023-06-26T02:12:23;9.75;;;4.28;;
19482;SDS011;9882;51.166;6.992;2023-06-26T02:14:51;9.52;;;4.35;;
19482;SDS011;9882;51.166;6.992;2023-06-26T02:17:24;10.13;;;4.97;;
19482;SDS011;9882;51.166;6.992;2023-06-26T02:19:54;10.95;;;4.45;;
19482;SDS011;9882;51.166;6.992;2023-06-26T02:22:23;8.52;;;4.20;;
19482;SDS011;9882;51.166;6.992;2023-06-26T02:24:52;11.23;;;4.75;;
19482;SDS011;9882;51.166;6.992;2023-06-26T02:27:20;12.38;;;4.95;;
19482;SDS011;9882;51.166;6.992;2023-06-26T02:29:48;12.98;;;5.03;;
19482;SDS011;9882;51.166;6.992;2023-06-26T02:32:17;12.85;;;4.95;;
19482;SDS011;9882;51.166;6.992;2023-06-26T02:34:50;12.13;;;5.00;;
19482;SDS011;9882;51.166;6.992;2023-06-26T02:37:19;12.88;;;5.28;;
19482;SDS011;9882;51.166;6.992;2023-06-26T02:39:48;10.88;;;4.65;;
19482;SDS011;9882;51.166;6.992;2023-06-26T02:42:17;12.88;;;5.13;;
19482;SDS011;9882;51.166;6.992;2023-06-26T02:44:45;10.57;;;4.72;;
19482;SDS011;9882;51.166;6.992;2023-06-26T02:47:14;12.20;;;5.07;;
19482;SDS011;9882;51.166;6.992;2023-06-26T02:49:44;13.57;;;4.88;;
19482;SDS011;9882;51.166;6.992;2023-06-26T02:52:14;11.82;;;4.60;;
19482;SDS011;9882;51.166;6.992;2023-06-26T02:54:42;11.05;;;4.63;;
19482;SDS011;9882;51.166;6.992;2023-06-26T02:57:12;9.50;;;4.43;;
19482;SDS011;9882;51.166;6.992;2023-06-26T02:59:41;13.52;;;5.32;;
19482;SDS011;9882;51.166;6.992;2023-06-26T03:02:12;10.98;;;4.57;;
19482;SDS011;9882;51.166;6.992;2023-06-26T03:04:44;11.23;;;4.70;;
19482;SDS011;9882;51.166;6.992;2023-06-26T03:07:15;10.25;;;4.25;;
19482;SDS011;9882;51.166;6.992;2023-06-26T03:09:44;13.13;;;4.75;;
19482;SDS011;9882;51.166;6.992;2023-06-26T03:12:12;12.25;;;4.60;;
19482;SDS011;9882;51.166;6.992;2023-06-26T03:14:41;12.55;;;5.13;;
19482;SDS011;9882;51.166;6.992;2023-06-26T03:17:11;9.98;;;4.50;;
19482;SDS011;9882;51.166;6.992;2023-06-26T03:19:45;12.05;;;4.63;;
19482;SDS011;9882;51.166;6.992;2023-06-26T03:22:21;14.82;;;5.07;;
19482;SDS011;9882;51.166;6.992;2023-06-26T03:24:49;11.07;;;4.53;;
19482;SDS011;9882;51.166;6.992;2023-06-26T03:27:18;11.43;;;5.15;;
19482;SDS011;9882;51.166;6.992;2023-06-26T03:29:48;9.15;;;4.53;;
19482;SDS011;9882;51.166;6.992;2023-06-26T03:32:17;11.27;;;5.35;;
19482;SDS011;9882;51.166;6.992;2023-06-26T03:34:46;15.18;;;6.30;;
19482;SDS011;9882;51.166;6.992;2023-06-26T03:37:15;13.65;;;5.60;;
19482;SDS011;9882;51.166;6.992;2023-06-26T03:39:45;15.00;;;6.10;;
19482;SDS011;9882;51.166;6.992;2023-06-26T03:42:14;16.85;;;6.20;;
19482;SDS011;9882;51.166;6.992;2023-06-26T03:44:42;13.07;;;5.40;;
19482;SDS011;9882;51.166;6.992;2023-06-26T03:47:11;13.55;;;5.43;;
19482;SDS011;9882;51.166;6.992;2023-06-26T03:49:39;17.55;;;6.07;;
19482;SDS011;9882;51.166;6.992;2023-06-26T03:52:08;14.25;;;6.00;;
19482;SDS011;9882;51.166;6.992;2023-06-26T03:54:38;15.65;;;5.68;;
19482;SDS011;9882;51.166;6.992;2023-06-26T03:57:10;11.48;;;5.68;;
19482;SDS011;9882;51.166;6.992;2023-06-26T03:59:39;15.43;;;5.88;;
19482;SDS011;9882;51.166;6.992;2023-06-26T04:02:07;16.67;;;5.70;;
19482;SDS011;9882;51.166;6.992;2023-06-26T04:04:36;16.17;;;6.03;;
19482;SDS011;9882;51.166;6.992;2023-06-26T04:07:05;13.18;;;5.85;;
19482;SDS011;9882;51.166;6.992;2023-06-26T04:09:33;15.57;;;5.72;;
19482;SDS011;9882;51.166;6.992;2023-06-26T04:12:02;11.45;;;4.90;;
19482;SDS011;9882;51.166;6.992;2023-06-26T04:14:32;14.95;;;5.78;;
19482;SDS011;9882;51.166;6.992;2023-06-26T04:17:01;15.23;;;5.72;;
19482;SDS011;9882;51.166;6.992;2023-06-26T04:19:30;12.50;;;5.50;;
19482;SDS011;9882;51.166;6.992;2023-06-26T04:21:59;12.10;;;5.43;;
19482;SDS011;9882;51.166;6.992;2023-06-26T04:24:28;16.45;;;5.55;;
19482;SDS011;9882;51.166;6.992;2023-06-26T04:26:56;14.93;;;5.93;;
19482;SDS011;9882;51.166;6.992;2023-06-26T04:29:25;14.38;;;5.50;;
19482;SDS011;9882;51.166;6.992;2023-06-26T04:31:55;15.50;;;6.15;;
19482;SDS011;9882;51.166;6.992;2023-06-26T04:34:25;16.23;;;6.05;;
19482;SDS011;9882;51.166;6.992;2023-06-26T04:36:54;14.75;;;5.90;;
19482;SDS011;9882;51.166;6.992;2023-06-26T04:39:22;19.85;;;5.63;;
19482;SDS011;9882;51.166;6.992;2023-06-26T04:41:51;13.75;;;5.45;;
19482;SDS011;9882;51.166;6.992;2023-06-26T04:44:19;16.10;;;5.55;;
19482;SDS011;9882;51.166;6.992;2023-06-26T04:46:48;10.40;;;5.10;;
19482;SDS011;9882;51.166;6.992;2023-06-26T04:49:19;15.65;;;5.95;;
19482;SDS011;9882;51.166;6.992;2023-06-26T04:51:48;17.65;;;5.57;;
19482;SDS011;9882;51.166;6.992;2023-06-26T04:54:17;15.82;;;5.70;;
19482;SDS011;9882;51.166;6.992;2023-06-26T04:56:46;17.85;;;5.65;;
19482;SDS011;9882;51.166;6.992;2023-06-26T04:59:14;16.25;;;5.70;;
19482;SDS011;9882;51.166;6.992;2023-06-26T05:01:43;15.65;;;5.63;;
19482;SDS011;9882;51.166;6.992;2023-06-26T05:04:15;16.80;;;5.70;;
19482;SDS011;9882;51.166;6.992;2023-06-26T05:06:45;15.00;;;5.72;;
19482;SDS011;9882;51.166;6.992;2023-06-26T05:09:14;13.02;;;5.05;;
19482;SDS011;9882;51.166;6.992;2023-06-26T05:11:43;16.88;;;5.78;;
19482;SDS011;9882;51.166;6.992;2023-06-26T05:14:11;14.60;;;5.50;;
19482;SDS011;9882;51.166;6.992;2023-06-26T05:16:40;15.60;;;5.32;;
19482;SDS011;9882;51.166;6.992;2023-06-26T05:19:09;15.45;;;5.68;;
19482;SDS011;9882;51.166;6.992;2023-06-26T05:21:37;13.98;;;4.95;;
19482;SDS011;9882;51.166;6.992;2023-06-26T05:24:08;12.35;;;5.15;;
19482;SDS011;9882;51.166;6.992;2023-06-26T05:26:38;12.70;;;5.25;;
19482;SDS011;9882;51.166;6.992;2023-06-26T05:29:07;15.32;;;4.97;;
19482;SDS011;9882;51.166;6.992;2023-06-26T05:31:38;13.75;;;5.20;;
19482;SDS011;9882;51.166;6.992;2023-06-26T05:34:10;19.30;;;6.28;;
19482;SDS011;9882;51.166;6.992;2023-06-26T05:36:41;15.10;;;5.93;;
19482;SDS011;9882;51.166;6.992;2023-06-26T05:39:12;15.07;;;5.40;;
19482;SDS011;9882;51.166;6.992;2023-06-26T05:41:43;17.17;;;6.05;;
19482;SDS011;9882;51.166;6.992;2023-06-26T05:44:12;17.30;;;6.32;;
19482;SDS011;9882;51.166;6.992;2023-06-26T05:46:41;16.48;;;5.75;;
19482;SDS011;9882;51.166;6.992;2023-06-26T05:49:10;15.90;;;5.75;;
19482;SDS011;9882;51.166;6.992;2023-06-26T05:51:39;11.77;;;5.28;;
19482;SDS011;9882;51.166;6.992;2023-06-26T05:54:08;13.07;;;5.78;;
19482;SDS011;9882;51.166;6.992;2023-06-26T05:56:40;19.63;;;6.18;;
19482;SDS011;9882;51.166;6.992;2023-06-26T05:59:09;12.45;;;5.57;;
19482;SDS011;9882;51.166;6.992;2023-06-26T06:01:40;14.05;;;5.55;;
19482;SDS011;9882;51.166;6.992;2023-06-26T06:04:08;11.52;;;5.40;;
19482;SDS011;9882;51.166;6.992;2023-06-26T06:06:37;13.18;;;5.47;;
19482;SDS011;9882;51.166;6.992;2023-06-26T06:09:05;20.52;;;6.50;;
19482;SDS011;9882;51.166;6.992;2023-06-26T06:11:34;19.80;;;5.57;;
19482;SDS011;9882;51.166;6.992;2023-06-26T06:14:05;10.18;;;4.75;;
19482;SDS011;9882;51.166;6.992;2023-06-26T06:16:33;19.75;;;6.07;;
19482;SDS011;9882;51.166;6.992;2023-06-26T06:19:02;19.27;;;5.47;;
19482;SDS011;9882;51.166;6.992;2023-06-26T06:21:33;15.63;;;5.88;;
19482;SDS011;9882;51.166;6.992;2023-06-26T06:24:02;17.35;;;5.13;;
19482;SDS011;9882;51.166;6.992;2023-06-26T06:26:30;17.60;;;5.82;;
19482;SDS011;9882;51.166;6.992;2023-06-26T06:28:59;15.43;;;5.35;;
19482;SDS011;9882;51.166;6.992;2023-06-26T06:31:29;10.18;;;4.80;;
19482;SDS011;9882;51.166;6.992;2023-06-26T06:33:57;15.73;;;5.55;;
19482;SDS011;9882;51.166;6.992;2023-06-26T06:36:30;17.08;;;5.70;;
19482;SDS011;9882;51.166;6.992;2023-06-26T06:38:59;10.18;;;4.97;;
19482;SDS011;9882;51.166;6.992;2023-06-26T06:41:28;14.38;;;4.80;;
19482;SDS011;9882;51.166;6.992;2023-06-26T06:44:08;15.55;;;4.78;;
19482;SDS011;9882;51.166;6.992;2023-06-26T06:46:38;18.13;;;5.95;;
19482;SDS011;9882;51.166;6.992;2023-06-26T06:49:10;19.50;;;5.70;;
19482;SDS011;9882;51.166;6.992;2023-06-26T06:51:39;14.40;;;4.95;;
19482;SDS011;9882;51.166;6.992;2023-06-26T06:54:07;12.57;;;4.80;;
19482;SDS011;9882;51.166;6.992;2023-06-26T06:56:36;15.73;;;5.05;;
19482;SDS011;9882;51.166;6.992;2023-06-26T06:59:04;18.23;;;5.72;;
19482;SDS011;9882;51.166;6.992;2023-06-26T07:01:33;16.70;;;5.30;;
19482;SDS011;9882;51.166;6.992;2023-06-26T07:04:03;15.95;;;5.28;;
19482;SDS011;9882;51.166;6.992;2023-06-26T07:06:32;16.88;;;5.30;;
19482;SDS011;9882;51.166;6.992;2023-06-26T07:09:01;14.88;;;4.78;;
19482;SDS011;9882;51.166;6.992;2023-06-26T07:11:29;14.77;;;4.80;;
19482;SDS011;9882;51.166;6.992;2023-06-26T07:13:58;20.63;;;4.75;;
19482;SDS011;9882;51.166;6.992;2023-06-26T07:16:27;15.35;;;5.32;;
19482;SDS011;9882;51.166;6.992;2023-06-26T07:18:56;21.05;;;5.28;;
19482;SDS011;9882;51.166;6.992;2023-06-26T07:21:27;13.80;;;5.45;;
19482;SDS011;9882;51.166;6.992;2023-06-26T07:23:55;18.23;;;5.35;;
19482;SDS011;9882;51.166;6.992;2023-06-26T07:26:24;17.30;;;5.60;;
19482;SDS011;9882;51.166;6.992;2023-06-26T07:28:58;18.75;;;5.78;;
19482;SDS011;9882;51.166;6.992;2023-06-26T07:31:26;19.73;;;5.63;;
19482;SDS011;9882;51.166;6.992;2023-06-26T07:33:55;20.48;;;5.22;;
19482;SDS011;9882;51.166;6.992;2023-06-26T07:36:25;14.77;;;5.05;;
19482;SDS011;9882;51.166;6.992;2023-06-26T07:38:53;17.08;;;5.00;;
19482;SDS011;9882;51.166;6.992;2023-06-26T07:41:22;17.75;;;5.50;;
19482;SDS011;9882;51.166;6.992;2023-06-26T07:43:50;17.02;;;5.32;;
19482;SDS011;9882;51.166;6.992;2023-06-26T07:46:19;13.50;;;5.00;;
19482;SDS011;9882;51.166;6.992;2023-06-26T07:48:48;14.70;;;4.95;;
19482;SDS011;9882;51.166;6.992;2023-06-26T07:51:18;19.15;;;5.13;;
19482;SDS011;9882;51.166;6.992;2023-06-26T07:53:53;12.25;;;4.80;;
19482;SDS011;9882;51.166;6.992;2023-06-26T07:56:22;16.05;;;5.13;;
19482;SDS011;9882;51.166;6.992;2023-06-26T07:58:51;19.05;;;5.07;;
19482;SDS011;9882;51.166;6.992;2023-06-26T08:01:19;15.13;;;5.20;;
19482;SDS011;9882;51.166;6.992;2023-06-26T08:03:49;20.88;;;5.35;;
19482;SDS011;9882;51.166;6.992;2023-06-26T08:06:18;11.40;;;4.50;;
19482;SDS011;9882;51.166;6.992;2023-06-26T08:08:46;13.82;;;4.55;;
19482;SDS011;9882;51.166;6.992;2023-06-26T08:11:16;17.00;;;5.45;;
19482;SDS011;9882;51.166;6.992;2023-06-26T08:13:53;21.05;;;5.50;;
19482;SDS011;9882;51.166;6.992;2023-06-26T08:16:25;17.75;;;5.82;;
19482;SDS011;9882;51.166;6.992;2023-06-26T08:18:54;16.45;;;4.75;;
19482;SDS011;9882;51.166;6.992;2023-06-26T08:21:24;22.13;;;5.60;;
19482;SDS011;9882;51.166;6.992;2023-06-26T08:23:52;16.92;;;5.15;;
19482;SDS011;9882;51.166;6.992;2023-06-26T08:26:27;8.30;;;4.00;;
19482;SDS011;9882;51.166;6.992;2023-06-26T08:28:56;18.63;;;4.85;;
19482;SDS011;9882;51.166;6.992;2023-06-26T08:31:24;13.82;;;4.78;;
19482;SDS011;9882;51.166;6.992;2023-06-26T08:33:53;16.33;;;5.40;;
19482;SDS011;9882;51.166;6.992;2023-06-26T08:36:21;15.18;;;4.85;;
19482;SDS011;9882;51.166;6.992;2023-06-26T08:38:50;13.55;;;4.88;;
19482;SDS011;9882;51.166;6.992;2023-06-26T08:41:18;16.80;;;5.43;;
19482;SDS011;9882;51.166;6.992;2023-06-26T08:43:49;13.77;;;4.70;;
19482;SDS011;9882;51.166;6.992;2023-06-26T08:46:18;15.85;;;5.40;;
19482;SDS011;9882;51.166;6.992;2023-06-26T08:48:48;15.80;;;5.07;;
19482;SDS011;9882;51.166;6.992;2023-06-26T08:51:23;17.88;;;5.10;;
19482;SDS011;9882;51.166;6.992;2023-06-26T08:53:55;21.40;;;6.15;;
19482;SDS011;9882;51.166;6.992;2023-06-26T08:56:27;14.70;;;5.20;;
19482;SDS011;9882;51.166;6.992;2023-06-26T08:59:01;15.88;;;5.85;;
19482;SDS011;9882;51.166;6.992;2023-06-26T09:01:29;19.48;;;5.40;;
19482;SDS011;9882;51.166;6.992;2023-06-26T09:03:59;21.98;;;6.03;;
19482;SDS011;9882;51.166;6.992;2023-06-26T09:06:27;13.07;;;4.70;;
19482;SDS011;9882;51.166;6.992;2023-06-26T09:08:56;20.75;;;6.18;;
19482;SDS011;9882;51.166;6.992;2023-06-26T09:11:24;17.25;;;6.05;;
19482;SDS011;9882;51.166;6.992;2023-06-26T09:13:53;21.73;;;6.20;;
19482;SDS011;9882;51.166;6.992;2023-06-26T09:16:25;16.48;;;6.00;;
19482;SDS011;9882;51.166;6.992;2023-06-26T09:18:55;17.27;;;5.82;;
19482;SDS011;9882;51.166;6.992;2023-06-26T09:21:24;15.82;;;5.45;;
19482;SDS011;9882;51.166;6.992;2023-06-26T09:23:53;13.85;;;5.28;;
19482;SDS011;9882;51.166;6.992;2023-06-26T09:26:22;20.73;;;6.28;;
19482;SDS011;9882;51.166;6.992;2023-06-26T09:28:51;18.10;;;5.97;;
19482;SDS011;9882;51.166;6.992;2023-06-26T09:31:19;16.55;;;5.15;;
19482;SDS011;9882;51.166;6.992;2023-06-26T09:34:02;19.17;;;6.70;;
19482;SDS011;9882;51.166;6.992;2023-06-26T09:36:32;17.05;;;6.03;;
19482;SDS011;9882;51.166;6.992;2023-06-26T09:39:06;16.70;;;5.60;;
19482;SDS011;9882;51.166;6.992;2023-06-26T09:41:39;17.55;;;6.28;;
19482;SDS011;9882;51.166;6.992;2023-06-26T09:44:10;24.88;;;5.47;;
19482;SDS011;9882;51.166;6.992;2023-06-26T09:46:39;18.23;;;5.78;;
19482;SDS011;9882;51.166;6.992;2023-06-26T09:49:10;19.95;;;5.32;;
19482;SDS011;9882;51.166;6.992;2023-06-26T09:51:40;19.52;;;5.72;;
19482;SDS011;9882;51.166;6.992;2023-06-26T09:54:09;18.35;;;5.05;;
19482;SDS011;9882;51.166;6.992;2023-06-26T09:56:38;12.15;;;4.60;;
19482;SDS011;9882;51.166;6.992;2023-06-26T09:59:07;16.45;;;5.65;;
19482;SDS011;9882;51.166;6.992;2023-06-26T10:01:40;15.05;;;5.40;;
19482;SDS011;9882;51.166;6.992;2023-06-26T10:04:11;18.42;;;5.55;;
19482;SDS011;9882;51.166;6.992;2023-06-26T10:06:44;14.38;;;5.30;;
19482;SDS011;9882;51.166;6.992;2023-06-26T10:09:16;25.90;;;5.72;;
19482;SDS011;9882;51.166;6.992;2023-06-26T10:11:46;14.90;;;5.55;;
19482;SDS011;9882;51.166;6.992;2023-06-26T10:14:19;14.18;;;5.47;;
19482;SDS011;9882;51.166;6.992;2023-06-26T10:16:49;16.50;;;4.85;;
19482;SDS011;9882;51.166;6.992;2023-06-26T10:19:20;12.32;;;4.75;;
19482;SDS011;9882;51.166;6.992;2023-06-26T10:21:52;20.70;;;5.25;;
19482;SDS011;9882;51.166;6.992;2023-06-26T10:24:22;19.70;;;5.35;;
19482;SDS011;9882;51.166;6.992;2023-06-26T10:26:56;22.33;;;5.65;;
19482;SDS011;9882;51.166;6.992;2023-06-26T10:29:27;19.58;;;5.55;;
19482;SDS011;9882;51.166;6.992;2023-06-26T10:31:59;15.30;;;4.45;;
19482;SDS011;9882;51.166;6.992;2023-06-26T10:34:32;14.85;;;4.53;;
19482;SDS011;9882;51.166;6.992;2023-06-26T10:37:02;13.85;;;4.15;;
19482;SDS011;9882;51.166;6.992;2023-06-26T10:39:36;13.55;;;3.83;;
19482;SDS011;9882;51.166;6.992;2023-06-26T10:42:15;10.98;;;3.45;;
19482;SDS011;9882;51.166;6.992;2023-06-26T10:44:45;20.33;;;4.10;;
19482;SDS011;9882;51.166;6.992;2023-06-26T10:47:28;12.88;;;3.72;;
19482;SDS011;9882;51.166;6.992;2023-06-26T10:53:06;7.55;;;3.38;;
19482;SDS011;9882;51.166;6.992;2023-06-26T10:55:44;14.18;;;3.60;;
19482;SDS011;9882;51.166;6.992;2023-06-26T10:58:32;9.93;;;3.65;;
19482;SDS011;9882;51.166;6.992;2023-06-26T11:01:14;8.40;;;3.30;;
19482;SDS011;9882;51.166;6.992;2023-06-26T11:03:49;7.80;;;3.33;;
19482;SDS011;9882;51.166;6.992;2023-06-26T11:06:37;17.70;;;3.95;;
19482;SDS011;9882;51.166;6.992;2023-06-26T11:09:13;9.52;;;3.55;;
19482;SDS011;9882;51.166;6.992;2023-06-26T11:11:58;8.75;;;3.10;;
19482;SDS011;9882;51.166;6.992;2023-06-26T11:14:31;9.02;;;2.90;;
19482;SDS011;9882;51.166;6.992;2023-06-26T11:17:04;6.28;;;3.08;;
19482;SDS011;9882;51.166;6.992;2023-06-26T11:19:34;6.90;;;3.00;;
19482;SDS011;9882;51.166;6.992;2023-06-26T11:22:12;9.13;;;2.83;;
19482;SDS011;9882;51.166;6.992;2023-06-26T11:24:43;6.78;;;2.85;;
19482;SDS011;9882;51.166;6.992;2023-06-26T11:27:15;10.48;;;2.83;;
19482;SDS011;9882;51.166;6.992;2023-06-26T11:29:47;4.22;;;2.55;;
19482;SDS011;9882;51.166;6.992;2023-06-26T11:32:17;6.90;;;2.63;;
19482;SDS011;9882;51.166;6.992;2023-06-26T11:34:45;5.50;;;2.58;;
19482;SDS011;9882;51.166;6.992;2023-06-26T11:37:17;7.28;;;2.70;;
19482;SDS011;9882;51.166;6.992;2023-06-26T11:39:47;4.80;;;2.42;;
19482;SDS011;9882;51.166;6.992;2023-06-26T11:42:19;8.13;;;2.78;;
19482;SDS011;9882;51.166;6.992;2023-06-26T11:44:48;6.38;;;2.30;;
19482;SDS011;9882;51.166;6.992;2023-06-26T11:47:17;7.82;;;3.25;;
19482;SDS011;9882;51.166;6.992;2023-06-26T11:49:48;6.40;;;2.42;;
19482;SDS011;9882;51.166;6.992;2023-06-26T11:52:19;11.25;;;2.50;;
19482;SDS011;9882;51.166;6.992;2023-06-26T11:54:48;4.28;;;2.35;;
19482;SDS011;9882;51.166;6.992;2023-06-26T11:57:16;3.15;;;2.03;;
19482;SDS011;9882;51.166;6.992;2023-06-26T11:59:49;6.28;;;2.47;;
19482;SDS011;9882;51.166;6.992;2023-06-26T12:02:18;8.27;;;2.50;;
19482;SDS011;9882;51.166;6.992;2023-06-26T12:04:48;9.27;;;2.17;;
19482;SDS011;9882;51.166;6.992;2023-06-26T12:07:19;30.10;;;2.55;;
19482;SDS011;9882;51.166;6.992;2023-06-26T12:09:50;6.43;;;2.70;;
19482;SDS011;9882;51.166;6.992;2023-06-26T12:12:18;5.30;;;2.17;;
19482;SDS011;9882;51.166;6.992;2023-06-26T12:14:47;6.85;;;2.72;;
19482;SDS011;9882;51.166;6.992;2023-06-26T12:17:16;4.82;;;2.22;;
19482;SDS011;9882;51.166;6.992;2023-06-26T12:19:46;7.63;;;2.33;;
19482;SDS011;9882;51.166;6.992;2023-06-26T12:22:19;10.23;;;2.53;;
19482;SDS011;9882;51.166;6.992;2023-06-26T12:24:48;9.13;;;2.50;;
19482;SDS011;9882;51.166;6.992;2023-06-26T12:27:18;7.75;;;2.28;;
19482;SDS011;9882;51.166;6.992;2023-06-26T12:29:49;6.53;;;2.38;;
19482;SDS011;9882;51.166;6.992;2023-06-26T12:32:21;7.05;;;2.67;;
19482;SDS011;9882;51.166;6.992;2023-06-26T12:34:51;12.93;;;2.45;;
19482;SDS011;9882;51.166;6.992;2023-06-26T12:37:25;10.82;;;2.45;;
19482;SDS011;9882;51.166;6.992;2023-06-26T12:39:57;6.50;;;2.28;;
19482;SDS011;9882;51.166;6.992;2023-06-26T12:42:26;8.73;;;2.20;;
19482;SDS011;9882;51.166;6.992;2023-06-26T12:44:56;3.83;;;2.20;;
19482;SDS011;9882;51.166;6.992;2023-06-26T12:47:25;9.20;;;2.33;;
19482;SDS011;9882;51.166;6.992;2023-06-26T12:49:54;4.10;;;1.80;;
19482;SDS011;9882;51.166;6.992;2023-06-26T12:52:25;3.42;;;2.28;;
19482;SDS011;9882;51.166;6.992;2023-06-26T12:54:54;12.27;;;2.30;;
19482;SDS011;9882;51.166;6.992;2023-06-26T12:57:24;3.38;;;1.80;;
19482;SDS011;9882;51.166;6.992;2023-06-26T12:59:56;6.82;;;2.35;;
19482;SDS011;9882;51.166;6.992;2023-06-26T13:02:26;7.47;;;1.60;;
19482;SDS011;9882;51.166;6.992;2023-06-26T13:04:55;14.15;;;2.08;;
19482;SDS011;9882;51.166;6.992;2023-06-26T13:07:23;4.03;;;1.73;;
19482;SDS011;9882;51.166;6.992;2023-06-26T13:09:53;8.82;;;3.13;;
19482;SDS011;9882;51.166;6.992;2023-06-26T13:12:22;12.90;;;3.25;;
19482;SDS011;9882;51.166;6.992;2023-06-26T13:14:51;15.05;;;2.58;;
19482;SDS011;9882;51.166;6.992;2023-06-26T13:17:19;5.35;;;2.45;;
19482;SDS011;9882;51.166;6.992;2023-06-26T13:19:48;9.35;;;2.17;;
19482;SDS011;9882;51.166;6.992;2023-06-26T13:22:17;4.10;;;1.90;;
19482;SDS011;9882;51.166;6.992;2023-06-26T13:24:46;7.47;;;2.17;;
19482;SDS011;9882;51.166;6.992;2023-06-26T13:27:16;5.20;;;2.40;;
19482;SDS011;9882;51.166;6.992;2023-06-26T13:29:47;4.25;;;1.95;;
19482;SDS011;9882;51.166;6.992;2023-06-26T13:32:16;5.35;;;2.17;;
19482;SDS011;9882;51.166;6.992;2023-06-26T13:34:44;6.50;;;2.20;;
19482;SDS011;9882;51.166;6.992;2023-06-26T13:37:13;5.72;;;2.13;;
19482;SDS011;9882;51.166;6.992;2023-06-26T13:39:42;6.70;;;1.88;;
19482;SDS011;9882;51.166;6.992;2023-06-26T13:42:18;12.65;;;2.08;;
19482;SDS011;9882;51.166;6.992;2023-06-26T13:44:46;7.63;;;2.20;;
19482;SDS011;9882;51.166;6.992;2023-06-26T13:47:22;6.55;;;1.73;;
19482;SDS011;9882;51.166;6.992;2023-06-26T13:49:50;4.25;;;2.00;;
19482;SDS011;9882;51.166;6.992;2023-06-26T13:52:19;6.53;;;1.70;;
19482;SDS011;9882;51.166;6.992;2023-06-26T13:54:47;5.32;;;2.10;;
19482;SDS011;9882;51.166;6.992;2023-06-26T13:57:17;2.78;;;1.80;;
19482;SDS011;9882;51.166;6.992;2023-06-26T13:59:49;8.00;;;1.77;;
19482;SDS011;9882;51.166;6.992;2023-06-26T14:02:18;6.65;;;1.90;;
19482;SDS011;9882;51.166;6.992;2023-06-26T14:04:47;4.97;;;1.83;;
19482;SDS011;9882;51.166;6.992;2023-06-26T14:07:15;3.72;;;1.92;;
19482;SDS011;9882;51.166;6.992;2023-06-26T14:09:44;8.07;;;1.50;;
19482;SDS011;9882;51.166;6.992;2023-06-26T14:12:15;9.13;;;2.17;;
19482;SDS011;9882;51.166;6.992;2023-06-26T14:14:46;4.95;;;1.92;;
19482;SDS011;9882;51.166;6.992;2023-06-26T14:17:15;4.65;;;1.40;;
19482;SDS011;9882;51.166;6.992;2023-06-26T14:19:43;4.80;;;2.00;;
19482;SDS011;9882;51.166;6.992;2023-06-26T14:22:13;5.32;;;1.80;;
19482;SDS011;9882;51.166;6.992;2023-06-26T14:24:41;8.88;;;2.20;;
19482;SDS011;9882;51.166;6.992;2023-06-26T14:27:10;2.30;;;1.50;;
19482;SDS011;9882;51.166;6.992;2023-06-26T14:29:41;3.53;;;1.95;;
19482;SDS011;9882;51.166;6.992;2023-06-26T14:32:10;3.83;;;1.85;;
19482;SDS011;9882;51.166;6.992;2023-06-26T14:34:39;9.07;;;2.15;;
19482;SDS011;9882;51.166;6.992;2023-06-26T14:37:08;4.32;;;1.55;;
19482;SDS011;9882;51.166;6.992;2023-06-26T14:39:36;4.47;;;1.80;;
19482;SDS011;9882;51.166;6.992;2023-06-26T14:42:06;2.90;;;1.27;;
19482;SDS011;9882;51.166;6.992;2023-06-26T14:44:35;5.93;;;2.13;;
19482;SDS011;9882;51.166;6.992;2023-06-26T14:47:06;7.88;;;1.88;;
19482;SDS011;9882;51.166;6.992;2023-06-26T14:49:35;8.05;;;1.77;;
19482;SDS011;9882;51.166;6.992;2023-06-26T14:52:07;6.30;;;1.98;;
19482;SDS011;9882;51.166;6.992;2023-06-26T14:54:39;2.80;;;1.63;;
19482;SDS011;9882;51.166;6.992;2023-06-26T14:57:08;4.05;;;1.60;;
19482;SDS011;9882;51.166;6.992;2023-06-26T14:59:37;1.75;;;1.48;;
19482;SDS011;9882;51.166;6.992;2023-06-26T15:02:07;4.85;;;2.08;;
19482;SDS011;9882;51.166;6.992;2023-06-26T15:04:38;4.63;;;2.17;;
19482;SDS011;9882;51.166;6.992;2023-06-26T15:07:08;5.55;;;2.15;;
19482;SDS011;9882;51.166;6.992;2023-06-26T15:09:37;7.55;;;2.03;;
19482;SDS011;9882;51.166;6.992;2023-06-26T15:12:07;6.50;;;2.78;;
19482;SDS011;9882;51.166;6.992;2023-06-26T15:14:36;6.68;;;2.40;;